<?xml version="1.0" encoding="UTF-8" standalone="no" ?>
<gpx xmlns="http://www.topografix.com/GPX/1/1" xmlns:xsi="http://www.w3.org/2001/XMLSchema-instance" xsi:schemaLocation="http://www.topografix.com/GPX/1/1 http://www.topografix.com/GPX/1/1/gpx.xsd" version="1.1" creator="VisuGPX - https://www.visugpx.com">
  <metadata>
    <name>Rando Morbier Forêt</name>
  </metadata>
  <trk>
    <name><![CDATA[ACTIVE LOG]]></name>
    <trkseg>
      <trkpt lat="46.58695" lon="6.06088">
        <ele>1047.493652</ele>
        <time>2020-09-12T07:31:33Z</time>
      </trkpt>
      <trkpt lat="46.58702" lon="6.06103">
        <ele>1071.526611</ele>
        <time>2020-09-12T07:31:40Z</time>
      </trkpt>
      <trkpt lat="46.58706" lon="6.06113">
        <ele>1067.681152</ele>
        <time>2020-09-12T07:31:50Z</time>
      </trkpt>
      <trkpt lat="46.58706" lon="6.06118">
        <ele>1072.488037</ele>
        <time>2020-09-12T07:31:52Z</time>
      </trkpt>
      <trkpt lat="46.58707" lon="6.06123">
        <ele>1076.813965</ele>
        <time>2020-09-12T07:31:54Z</time>
      </trkpt>
      <trkpt lat="46.58719" lon="6.06128">
        <ele>1076.813965</ele>
        <time>2020-09-12T07:32:01Z</time>
      </trkpt>
      <trkpt lat="46.58721" lon="6.06131">
        <ele>1077.294678</ele>
        <time>2020-09-12T07:32:03Z</time>
      </trkpt>
      <trkpt lat="46.58731" lon="6.06143">
        <ele>1081.620361</ele>
        <time>2020-09-12T07:32:15Z</time>
      </trkpt>
      <trkpt lat="46.58732" lon="6.06146">
        <ele>1082.101074</ele>
        <time>2020-09-12T07:32:18Z</time>
      </trkpt>
      <trkpt lat="46.58738" lon="6.06159">
        <ele>1084.504639</ele>
        <time>2020-09-12T07:32:31Z</time>
      </trkpt>
      <trkpt lat="46.58749" lon="6.06169">
        <ele>1089.311035</ele>
        <time>2020-09-12T07:32:44Z</time>
      </trkpt>
      <trkpt lat="46.58754" lon="6.06177">
        <ele>1090.272461</ele>
        <time>2020-09-12T07:32:50Z</time>
      </trkpt>
      <trkpt lat="46.58758" lon="6.06185">
        <ele>1092.675781</ele>
        <time>2020-09-12T07:32:57Z</time>
      </trkpt>
      <trkpt lat="46.58762" lon="6.06202">
        <ele>1097.001465</ele>
        <time>2020-09-12T07:33:15Z</time>
      </trkpt>
      <trkpt lat="46.58779" lon="6.06218">
        <ele>1097.962891</ele>
        <time>2020-09-12T07:33:47Z</time>
      </trkpt>
      <trkpt lat="46.58792" lon="6.06231">
        <ele>1096.520996</ele>
        <time>2020-09-12T07:34:04Z</time>
      </trkpt>
      <trkpt lat="46.58808" lon="6.06246">
        <ele>1096.520996</ele>
        <time>2020-09-12T07:34:22Z</time>
      </trkpt>
      <trkpt lat="46.58966" lon="6.06303">
        <ele>1102.769531</ele>
        <time>2020-09-12T07:37:24Z</time>
      </trkpt>
      <trkpt lat="46.58987" lon="6.06305">
        <ele>1101.327637</ele>
        <time>2020-09-12T07:37:40Z</time>
      </trkpt>
      <trkpt lat="46.59029" lon="6.06312">
        <ele>1105.653564</ele>
        <time>2020-09-12T07:38:22Z</time>
      </trkpt>
      <trkpt lat="46.59051" lon="6.0635">
        <ele>1103.730957</ele>
        <time>2020-09-12T07:38:45Z</time>
      </trkpt>
      <trkpt lat="46.59072" lon="6.06383">
        <ele>1106.134033</ele>
        <time>2020-09-12T07:39:13Z</time>
      </trkpt>
      <trkpt lat="46.59072" lon="6.06385">
        <ele>1106.134033</ele>
        <time>2020-09-12T07:39:14Z</time>
      </trkpt>
      <trkpt lat="46.59073" lon="6.06406">
        <ele>1107.576172</ele>
        <time>2020-09-12T07:39:32Z</time>
      </trkpt>
      <trkpt lat="46.59085" lon="6.06429">
        <ele>1111.9021</ele>
        <time>2020-09-12T07:39:56Z</time>
      </trkpt>
      <trkpt lat="46.59109" lon="6.06447">
        <ele>1113.343994</ele>
        <time>2020-09-12T07:40:18Z</time>
      </trkpt>
      <trkpt lat="46.59125" lon="6.06461">
        <ele>1112.863281</ele>
        <time>2020-09-12T07:40:29Z</time>
      </trkpt>
      <trkpt lat="46.59132" lon="6.0646">
        <ele>1112.382568</ele>
        <time>2020-09-12T07:40:36Z</time>
      </trkpt>
      <trkpt lat="46.59143" lon="6.06467">
        <ele>1113.824463</ele>
        <time>2020-09-12T07:40:44Z</time>
      </trkpt>
      <trkpt lat="46.5915" lon="6.06495">
        <ele>1114.785889</ele>
        <time>2020-09-12T07:40:58Z</time>
      </trkpt>
      <trkpt lat="46.59149" lon="6.0653">
        <ele>1113.824463</ele>
        <time>2020-09-12T07:41:13Z</time>
      </trkpt>
      <trkpt lat="46.59147" lon="6.06551">
        <ele>1116.228027</ele>
        <time>2020-09-12T07:41:29Z</time>
      </trkpt>
      <trkpt lat="46.59162" lon="6.06565">
        <ele>1120.073242</ele>
        <time>2020-09-12T07:41:43Z</time>
      </trkpt>
      <trkpt lat="46.59194" lon="6.06568">
        <ele>1123.918457</ele>
        <time>2020-09-12T07:42:54Z</time>
      </trkpt>
      <trkpt lat="46.59207" lon="6.06588">
        <ele>1124.39917</ele>
        <time>2020-09-12T07:43:11Z</time>
      </trkpt>
      <trkpt lat="46.59228" lon="6.0661">
        <ele>1126.321777</ele>
        <time>2020-09-12T07:43:34Z</time>
      </trkpt>
      <trkpt lat="46.59253" lon="6.06652">
        <ele>1131.608887</ele>
        <time>2020-09-12T07:44:23Z</time>
      </trkpt>
      <trkpt lat="46.5928" lon="6.06662">
        <ele>1134.493164</ele>
        <time>2020-09-12T07:44:44Z</time>
      </trkpt>
      <trkpt lat="46.59286" lon="6.06666">
        <ele>1134.973877</ele>
        <time>2020-09-12T07:44:55Z</time>
      </trkpt>
      <trkpt lat="46.59297" lon="6.0667">
        <ele>1134.973877</ele>
        <time>2020-09-12T07:45:07Z</time>
      </trkpt>
      <trkpt lat="46.59304" lon="6.06675">
        <ele>1133.531738</ele>
        <time>2020-09-12T07:45:12Z</time>
      </trkpt>
      <trkpt lat="46.59306" lon="6.06674">
        <ele>1134.012451</ele>
        <time>2020-09-12T07:45:16Z</time>
      </trkpt>
      <trkpt lat="46.59319" lon="6.06675">
        <ele>1136.89624</ele>
        <time>2020-09-12T07:45:25Z</time>
      </trkpt>
      <trkpt lat="46.59329" lon="6.06671">
        <ele>1135.454346</ele>
        <time>2020-09-12T07:45:34Z</time>
      </trkpt>
      <trkpt lat="46.59339" lon="6.06663">
        <ele>1139.780273</ele>
        <time>2020-09-12T07:45:48Z</time>
      </trkpt>
      <trkpt lat="46.59356" lon="6.06657">
        <ele>1142.183594</ele>
        <time>2020-09-12T07:46:04Z</time>
      </trkpt>
      <trkpt lat="46.5936" lon="6.06654">
        <ele>1142.183594</ele>
        <time>2020-09-12T07:46:09Z</time>
      </trkpt>
      <trkpt lat="46.59376" lon="6.06654">
        <ele>1135.454346</ele>
        <time>2020-09-12T07:46:25Z</time>
      </trkpt>
      <trkpt lat="46.59389" lon="6.06664">
        <ele>1133.531738</ele>
        <time>2020-09-12T07:46:39Z</time>
      </trkpt>
      <trkpt lat="46.594" lon="6.06678">
        <ele>1134.493164</ele>
        <time>2020-09-12T07:47:15Z</time>
      </trkpt>
      <trkpt lat="46.59418" lon="6.06688">
        <ele>1134.493164</ele>
        <time>2020-09-12T07:47:36Z</time>
      </trkpt>
      <trkpt lat="46.5943" lon="6.06713">
        <ele>1134.012451</ele>
        <time>2020-09-12T07:47:51Z</time>
      </trkpt>
      <trkpt lat="46.59431" lon="6.0672">
        <ele>1134.012451</ele>
        <time>2020-09-12T07:47:58Z</time>
      </trkpt>
      <trkpt lat="46.5943" lon="6.06735">
        <ele>1126.80249</ele>
        <time>2020-09-12T07:48:16Z</time>
      </trkpt>
      <trkpt lat="46.59433" lon="6.06753">
        <ele>1127.283203</ele>
        <time>2020-09-12T07:48:31Z</time>
      </trkpt>
      <trkpt lat="46.59433" lon="6.06766">
        <ele>1127.763672</ele>
        <time>2020-09-12T07:48:42Z</time>
      </trkpt>
      <trkpt lat="46.59422" lon="6.06811">
        <ele>1129.205566</ele>
        <time>2020-09-12T07:49:13Z</time>
      </trkpt>
      <trkpt lat="46.59465" lon="6.06865">
        <ele>1130.166992</ele>
        <time>2020-09-12T07:50:04Z</time>
      </trkpt>
      <trkpt lat="46.5948" lon="6.06856">
        <ele>1125.841064</ele>
        <time>2020-09-12T07:50:28Z</time>
      </trkpt>
      <trkpt lat="46.59494" lon="6.06837">
        <ele>1124.39917</ele>
        <time>2020-09-12T07:50:40Z</time>
      </trkpt>
      <trkpt lat="46.5951" lon="6.0682">
        <ele>1118.150635</ele>
        <time>2020-09-12T07:51:03Z</time>
      </trkpt>
      <trkpt lat="46.59516" lon="6.06812">
        <ele>1110.940674</ele>
        <time>2020-09-12T07:51:15Z</time>
      </trkpt>
      <trkpt lat="46.59528" lon="6.06798">
        <ele>1108.056885</ele>
        <time>2020-09-12T07:51:34Z</time>
      </trkpt>
      <trkpt lat="46.59597" lon="6.06703">
        <ele>1104.692139</ele>
        <time>2020-09-12T07:53:14Z</time>
      </trkpt>
      <trkpt lat="46.59615" lon="6.06695">
        <ele>1106.134033</ele>
        <time>2020-09-12T07:53:32Z</time>
      </trkpt>
      <trkpt lat="46.5963" lon="6.06706">
        <ele>1105.172852</ele>
        <time>2020-09-12T07:53:55Z</time>
      </trkpt>
      <trkpt lat="46.59642" lon="6.0674">
        <ele>1101.327637</ele>
        <time>2020-09-12T07:54:13Z</time>
      </trkpt>
      <trkpt lat="46.59639" lon="6.06763">
        <ele>1098.443359</ele>
        <time>2020-09-12T07:54:29Z</time>
      </trkpt>
      <trkpt lat="46.59644" lon="6.06813">
        <ele>1095.078857</ele>
        <time>2020-09-12T07:56:38Z</time>
      </trkpt>
      <trkpt lat="46.59635" lon="6.06856">
        <ele>1096.040283</ele>
        <time>2020-09-12T07:57:19Z</time>
      </trkpt>
      <trkpt lat="46.5964" lon="6.069">
        <ele>1094.117676</ele>
        <time>2020-09-12T07:57:49Z</time>
      </trkpt>
      <trkpt lat="46.59669" lon="6.0692">
        <ele>1091.714355</ele>
        <time>2020-09-12T07:58:20Z</time>
      </trkpt>
      <trkpt lat="46.5968" lon="6.06916">
        <ele>1090.272461</ele>
        <time>2020-09-12T07:58:33Z</time>
      </trkpt>
      <trkpt lat="46.59702" lon="6.06921">
        <ele>1088.830566</ele>
        <time>2020-09-12T07:58:48Z</time>
      </trkpt>
      <trkpt lat="46.5971" lon="6.06932">
        <ele>1086.427246</ele>
        <time>2020-09-12T07:59:00Z</time>
      </trkpt>
      <trkpt lat="46.5971" lon="6.06933">
        <ele>1086.427246</ele>
        <time>2020-09-12T07:59:01Z</time>
      </trkpt>
      <trkpt lat="46.59723" lon="6.06949">
        <ele>1084.504639</ele>
        <time>2020-09-12T07:59:20Z</time>
      </trkpt>
      <trkpt lat="46.59738" lon="6.06959">
        <ele>1082.581787</ele>
        <time>2020-09-12T07:59:33Z</time>
      </trkpt>
      <trkpt lat="46.59744" lon="6.06966">
        <ele>1081.620361</ele>
        <time>2020-09-12T07:59:42Z</time>
      </trkpt>
      <trkpt lat="46.59759" lon="6.06969">
        <ele>1081.620361</ele>
        <time>2020-09-12T07:59:56Z</time>
      </trkpt>
      <trkpt lat="46.59774" lon="6.06978">
        <ele>1080.178467</ele>
        <time>2020-09-12T08:00:10Z</time>
      </trkpt>
      <trkpt lat="46.59789" lon="6.06985">
        <ele>1080.65918</ele>
        <time>2020-09-12T08:00:22Z</time>
      </trkpt>
      <trkpt lat="46.59793" lon="6.06988">
        <ele>1080.65918</ele>
        <time>2020-09-12T08:00:26Z</time>
      </trkpt>
      <trkpt lat="46.59787" lon="6.06999">
        <ele>1080.178467</ele>
        <time>2020-09-12T08:00:39Z</time>
      </trkpt>
      <trkpt lat="46.59781" lon="6.07004">
        <ele>1080.65918</ele>
        <time>2020-09-12T08:01:10Z</time>
      </trkpt>
      <trkpt lat="46.59775" lon="6.07016">
        <ele>1083.062256</ele>
        <time>2020-09-12T08:01:23Z</time>
      </trkpt>
      <trkpt lat="46.59765" lon="6.07031">
        <ele>1084.504639</ele>
        <time>2020-09-12T08:01:36Z</time>
      </trkpt>
      <trkpt lat="46.5976" lon="6.07041">
        <ele>1085.946533</ele>
        <time>2020-09-12T08:01:48Z</time>
      </trkpt>
      <trkpt lat="46.59759" lon="6.07041">
        <ele>1086.427246</ele>
        <time>2020-09-12T08:01:52Z</time>
      </trkpt>
      <trkpt lat="46.59745" lon="6.07059">
        <ele>1092.195068</ele>
        <time>2020-09-12T08:02:07Z</time>
      </trkpt>
      <trkpt lat="46.59733" lon="6.07082">
        <ele>1098.924072</ele>
        <time>2020-09-12T08:02:20Z</time>
      </trkpt>
      <trkpt lat="46.59728" lon="6.07091">
        <ele>1100.846924</ele>
        <time>2020-09-12T08:02:25Z</time>
      </trkpt>
      <trkpt lat="46.59724" lon="6.071">
        <ele>1103.730957</ele>
        <time>2020-09-12T08:02:31Z</time>
      </trkpt>
      <trkpt lat="46.59715" lon="6.07111">
        <ele>1108.056885</ele>
        <time>2020-09-12T08:02:43Z</time>
      </trkpt>
      <trkpt lat="46.59703" lon="6.07132">
        <ele>1109.498779</ele>
        <time>2020-09-12T08:02:58Z</time>
      </trkpt>
      <trkpt lat="46.59702" lon="6.07128">
        <ele>1103.730957</ele>
        <time>2020-09-12T08:03:08Z</time>
      </trkpt>
      <trkpt lat="46.59701" lon="6.07126">
        <ele>1097.001465</ele>
        <time>2020-09-12T08:03:22Z</time>
      </trkpt>
      <trkpt lat="46.59697" lon="6.07134">
        <ele>1097.482178</ele>
        <time>2020-09-12T08:03:31Z</time>
      </trkpt>
      <trkpt lat="46.59691" lon="6.07145">
        <ele>1098.924072</ele>
        <time>2020-09-12T08:03:41Z</time>
      </trkpt>
      <trkpt lat="46.59685" lon="6.07159">
        <ele>1102.288818</ele>
        <time>2020-09-12T08:03:51Z</time>
      </trkpt>
      <trkpt lat="46.59683" lon="6.07163">
        <ele>1103.250244</ele>
        <time>2020-09-12T08:03:54Z</time>
      </trkpt>
      <trkpt lat="46.5968" lon="6.07172">
        <ele>1104.21167</ele>
        <time>2020-09-12T08:04:00Z</time>
      </trkpt>
      <trkpt lat="46.59675" lon="6.07191">
        <ele>1108.056885</ele>
        <time>2020-09-12T08:04:13Z</time>
      </trkpt>
      <trkpt lat="46.59676" lon="6.07188">
        <ele>1106.134033</ele>
        <time>2020-09-12T08:04:17Z</time>
      </trkpt>
      <trkpt lat="46.5967" lon="6.07198">
        <ele>1107.576172</ele>
        <time>2020-09-12T08:04:29Z</time>
      </trkpt>
      <trkpt lat="46.59669" lon="6.072">
        <ele>1108.056885</ele>
        <time>2020-09-12T08:04:30Z</time>
      </trkpt>
      <trkpt lat="46.59664" lon="6.07216">
        <ele>1109.018066</ele>
        <time>2020-09-12T08:04:39Z</time>
      </trkpt>
      <trkpt lat="46.59657" lon="6.07227">
        <ele>1109.018066</ele>
        <time>2020-09-12T08:04:50Z</time>
      </trkpt>
      <trkpt lat="46.59653" lon="6.07235">
        <ele>1109.498779</ele>
        <time>2020-09-12T08:05:02Z</time>
      </trkpt>
      <trkpt lat="46.5965" lon="6.07242">
        <ele>1110.459961</ele>
        <time>2020-09-12T08:05:16Z</time>
      </trkpt>
      <trkpt lat="46.59643" lon="6.07258">
        <ele>1114.305176</ele>
        <time>2020-09-12T08:05:30Z</time>
      </trkpt>
      <trkpt lat="46.59641" lon="6.07264">
        <ele>1112.382568</ele>
        <time>2020-09-12T08:05:38Z</time>
      </trkpt>
      <trkpt lat="46.59634" lon="6.07281">
        <ele>1112.863281</ele>
        <time>2020-09-12T08:05:48Z</time>
      </trkpt>
      <trkpt lat="46.59627" lon="6.07292">
        <ele>1111.9021</ele>
        <time>2020-09-12T08:05:57Z</time>
      </trkpt>
      <trkpt lat="46.59625" lon="6.07295">
        <ele>1111.9021</ele>
        <time>2020-09-12T08:05:58Z</time>
      </trkpt>
      <trkpt lat="46.59614" lon="6.07311">
        <ele>1112.382568</ele>
        <time>2020-09-12T08:06:10Z</time>
      </trkpt>
      <trkpt lat="46.59613" lon="6.07312">
        <ele>1112.863281</ele>
        <time>2020-09-12T08:06:11Z</time>
      </trkpt>
      <trkpt lat="46.59612" lon="6.07318">
        <ele>1110.459961</ele>
        <time>2020-09-12T08:06:21Z</time>
      </trkpt>
      <trkpt lat="46.59616" lon="6.07314">
        <ele>1110.459961</ele>
        <time>2020-09-12T08:06:25Z</time>
      </trkpt>
      <trkpt lat="46.59612" lon="6.07326">
        <ele>1109.498779</ele>
        <time>2020-09-12T08:06:53Z</time>
      </trkpt>
      <trkpt lat="46.59611" lon="6.07333">
        <ele>1109.018066</ele>
        <time>2020-09-12T08:06:57Z</time>
      </trkpt>
      <trkpt lat="46.59605" lon="6.07346">
        <ele>1108.056885</ele>
        <time>2020-09-12T08:07:08Z</time>
      </trkpt>
      <trkpt lat="46.59598" lon="6.07356">
        <ele>1109.018066</ele>
        <time>2020-09-12T08:07:17Z</time>
      </trkpt>
      <trkpt lat="46.59588" lon="6.07372">
        <ele>1112.382568</ele>
        <time>2020-09-12T08:07:30Z</time>
      </trkpt>
      <trkpt lat="46.59582" lon="6.07383">
        <ele>1115.747314</ele>
        <time>2020-09-12T08:07:47Z</time>
      </trkpt>
      <trkpt lat="46.59579" lon="6.07405">
        <ele>1117.669922</ele>
        <time>2020-09-12T08:08:09Z</time>
      </trkpt>
      <trkpt lat="46.59627" lon="6.07455">
        <ele>1116.228027</ele>
        <time>2020-09-12T08:09:27Z</time>
      </trkpt>
      <trkpt lat="46.59634" lon="6.07464">
        <ele>1115.747314</ele>
        <time>2020-09-12T08:09:35Z</time>
      </trkpt>
      <trkpt lat="46.59652" lon="6.07491">
        <ele>1103.730957</ele>
        <time>2020-09-12T08:09:55Z</time>
      </trkpt>
      <trkpt lat="46.59665" lon="6.07501">
        <ele>1101.327637</ele>
        <time>2020-09-12T08:10:09Z</time>
      </trkpt>
      <trkpt lat="46.59677" lon="6.07509">
        <ele>1100.366455</ele>
        <time>2020-09-12T08:10:22Z</time>
      </trkpt>
      <trkpt lat="46.59688" lon="6.07519">
        <ele>1098.924072</ele>
        <time>2020-09-12T08:10:39Z</time>
      </trkpt>
      <trkpt lat="46.59703" lon="6.07522">
        <ele>1097.962891</ele>
        <time>2020-09-12T08:10:50Z</time>
      </trkpt>
      <trkpt lat="46.59696" lon="6.07516">
        <ele>1096.040283</ele>
        <time>2020-09-12T08:11:21Z</time>
      </trkpt>
      <trkpt lat="46.59685" lon="6.0751">
        <ele>1095.55957</ele>
        <time>2020-09-12T08:11:30Z</time>
      </trkpt>
      <trkpt lat="46.59683" lon="6.07509">
        <ele>1095.55957</ele>
        <time>2020-09-12T08:11:32Z</time>
      </trkpt>
      <trkpt lat="46.59664" lon="6.07501">
        <ele>1090.272461</ele>
        <time>2020-09-12T08:11:49Z</time>
      </trkpt>
      <trkpt lat="46.59652" lon="6.07503">
        <ele>1089.311035</ele>
        <time>2020-09-12T08:12:09Z</time>
      </trkpt>
      <trkpt lat="46.59635" lon="6.07547">
        <ele>1091.714355</ele>
        <time>2020-09-12T08:12:47Z</time>
      </trkpt>
      <trkpt lat="46.59628" lon="6.07568">
        <ele>1093.15625</ele>
        <time>2020-09-12T08:13:10Z</time>
      </trkpt>
      <trkpt lat="46.59617" lon="6.07582">
        <ele>1093.15625</ele>
        <time>2020-09-12T08:13:23Z</time>
      </trkpt>
      <trkpt lat="46.59601" lon="6.07609">
        <ele>1095.078857</ele>
        <time>2020-09-12T08:13:51Z</time>
      </trkpt>
      <trkpt lat="46.59595" lon="6.07617">
        <ele>1096.040283</ele>
        <time>2020-09-12T08:14:04Z</time>
      </trkpt>
      <trkpt lat="46.59584" lon="6.07632">
        <ele>1096.520996</ele>
        <time>2020-09-12T08:14:18Z</time>
      </trkpt>
      <trkpt lat="46.59572" lon="6.07652">
        <ele>1099.885498</ele>
        <time>2020-09-12T08:14:39Z</time>
      </trkpt>
      <trkpt lat="46.59565" lon="6.07665">
        <ele>1101.327637</ele>
        <time>2020-09-12T08:14:50Z</time>
      </trkpt>
      <trkpt lat="46.5956" lon="6.07679">
        <ele>1105.172852</ele>
        <time>2020-09-12T08:15:06Z</time>
      </trkpt>
      <trkpt lat="46.59555" lon="6.07695">
        <ele>1106.614746</ele>
        <time>2020-09-12T08:15:17Z</time>
      </trkpt>
      <trkpt lat="46.59552" lon="6.0771">
        <ele>1108.056885</ele>
        <time>2020-09-12T08:15:26Z</time>
      </trkpt>
      <trkpt lat="46.59545" lon="6.07729">
        <ele>1109.498779</ele>
        <time>2020-09-12T08:15:37Z</time>
      </trkpt>
      <trkpt lat="46.59542" lon="6.07739">
        <ele>1109.498779</ele>
        <time>2020-09-12T08:15:41Z</time>
      </trkpt>
      <trkpt lat="46.59533" lon="6.07758">
        <ele>1107.576172</ele>
        <time>2020-09-12T08:15:53Z</time>
      </trkpt>
      <trkpt lat="46.59531" lon="6.07773">
        <ele>1109.498779</ele>
        <time>2020-09-12T08:16:06Z</time>
      </trkpt>
      <trkpt lat="46.59506" lon="6.07866">
        <ele>1111.9021</ele>
        <time>2020-09-12T08:18:01Z</time>
      </trkpt>
      <trkpt lat="46.59454" lon="6.07889">
        <ele>1111.421387</ele>
        <time>2020-09-12T08:18:35Z</time>
      </trkpt>
      <trkpt lat="46.59415" lon="6.07901">
        <ele>1109.498779</ele>
        <time>2020-09-12T08:19:14Z</time>
      </trkpt>
      <trkpt lat="46.59403" lon="6.07897">
        <ele>1108.537354</ele>
        <time>2020-09-12T08:19:24Z</time>
      </trkpt>
      <trkpt lat="46.59386" lon="6.07894">
        <ele>1109.498779</ele>
        <time>2020-09-12T08:19:38Z</time>
      </trkpt>
      <trkpt lat="46.5935" lon="6.07877">
        <ele>1110.940674</ele>
        <time>2020-09-12T08:20:14Z</time>
      </trkpt>
      <trkpt lat="46.59286" lon="6.07805">
        <ele>1109.979248</ele>
        <time>2020-09-12T08:21:41Z</time>
      </trkpt>
      <trkpt lat="46.5925" lon="6.07945">
        <ele>1098.443359</ele>
        <time>2020-09-12T08:24:46Z</time>
      </trkpt>
      <trkpt lat="46.59234" lon="6.08008">
        <ele>1096.040283</ele>
        <time>2020-09-12T08:25:05Z</time>
      </trkpt>
      <trkpt lat="46.59225" lon="6.08028">
        <ele>1094.598145</ele>
        <time>2020-09-12T08:25:28Z</time>
      </trkpt>
      <trkpt lat="46.59152" lon="6.08142">
        <ele>1092.195068</ele>
        <time>2020-09-12T08:28:33Z</time>
      </trkpt>
      <trkpt lat="46.59053" lon="6.08068">
        <ele>1095.55957</ele>
        <time>2020-09-12T08:31:35Z</time>
      </trkpt>
      <trkpt lat="46.59004" lon="6.08004">
        <ele>1094.598145</ele>
        <time>2020-09-12T08:33:16Z</time>
      </trkpt>
      <trkpt lat="46.58934" lon="6.0799">
        <ele>1092.675781</ele>
        <time>2020-09-12T08:35:41Z</time>
      </trkpt>
      <trkpt lat="46.58913" lon="6.08037">
        <ele>1091.233643</ele>
        <time>2020-09-12T08:36:25Z</time>
      </trkpt>
      <trkpt lat="46.58886" lon="6.08047">
        <ele>1090.272461</ele>
        <time>2020-09-12T08:36:50Z</time>
      </trkpt>
      <trkpt lat="46.5886" lon="6.08035">
        <ele>1090.75293</ele>
        <time>2020-09-12T08:37:19Z</time>
      </trkpt>
      <trkpt lat="46.58858" lon="6.08035">
        <ele>1091.233643</ele>
        <time>2020-09-12T08:37:21Z</time>
      </trkpt>
      <trkpt lat="46.58824" lon="6.0802">
        <ele>1095.078857</ele>
        <time>2020-09-12T08:38:40Z</time>
      </trkpt>
      <trkpt lat="46.58821" lon="6.08017">
        <ele>1093.636963</ele>
        <time>2020-09-12T08:41:27Z</time>
      </trkpt>
      <trkpt lat="46.58813" lon="6.08011">
        <ele>1094.117676</ele>
        <time>2020-09-12T08:41:38Z</time>
      </trkpt>
      <trkpt lat="46.588" lon="6.08014">
        <ele>1095.078857</ele>
        <time>2020-09-12T08:41:50Z</time>
      </trkpt>
      <trkpt lat="46.58792" lon="6.08015">
        <ele>1096.040283</ele>
        <time>2020-09-12T08:42:01Z</time>
      </trkpt>
      <trkpt lat="46.5878" lon="6.08005">
        <ele>1093.636963</ele>
        <time>2020-09-12T08:42:13Z</time>
      </trkpt>
      <trkpt lat="46.58777" lon="6.08007">
        <ele>1091.714355</ele>
        <time>2020-09-12T08:42:17Z</time>
      </trkpt>
      <trkpt lat="46.58767" lon="6.08011">
        <ele>1087.388428</ele>
        <time>2020-09-12T08:42:27Z</time>
      </trkpt>
      <trkpt lat="46.58753" lon="6.08016">
        <ele>1084.504639</ele>
        <time>2020-09-12T08:42:39Z</time>
      </trkpt>
      <trkpt lat="46.58747" lon="6.08017">
        <ele>1085.46582</ele>
        <time>2020-09-12T08:42:49Z</time>
      </trkpt>
      <trkpt lat="46.58764" lon="6.07999">
        <ele>1085.946533</ele>
        <time>2020-09-12T08:44:21Z</time>
      </trkpt>
      <trkpt lat="46.58783" lon="6.07937">
        <ele>1087.869141</ele>
        <time>2020-09-12T08:45:21Z</time>
      </trkpt>
      <trkpt lat="46.58792" lon="6.07924">
        <ele>1088.349854</ele>
        <time>2020-09-12T08:45:28Z</time>
      </trkpt>
      <trkpt lat="46.58798" lon="6.07902">
        <ele>1089.311035</ele>
        <time>2020-09-12T08:45:43Z</time>
      </trkpt>
      <trkpt lat="46.5881" lon="6.07899">
        <ele>1083.542969</ele>
        <time>2020-09-12T08:46:07Z</time>
      </trkpt>
      <trkpt lat="46.58812" lon="6.07882">
        <ele>1086.427246</ele>
        <time>2020-09-12T08:48:14Z</time>
      </trkpt>
      <trkpt lat="46.58816" lon="6.07865">
        <ele>1083.062256</ele>
        <time>2020-09-12T08:48:38Z</time>
      </trkpt>
      <trkpt lat="46.58822" lon="6.07854">
        <ele>1085.46582</ele>
        <time>2020-09-12T08:48:51Z</time>
      </trkpt>
      <trkpt lat="46.58826" lon="6.07843">
        <ele>1087.388428</ele>
        <time>2020-09-12T08:49:03Z</time>
      </trkpt>
      <trkpt lat="46.58833" lon="6.07829">
        <ele>1089.311035</ele>
        <time>2020-09-12T08:49:14Z</time>
      </trkpt>
      <trkpt lat="46.58839" lon="6.07816">
        <ele>1091.714355</ele>
        <time>2020-09-12T08:49:25Z</time>
      </trkpt>
      <trkpt lat="46.58843" lon="6.078">
        <ele>1092.195068</ele>
        <time>2020-09-12T08:49:41Z</time>
      </trkpt>
      <trkpt lat="46.58874" lon="6.07735">
        <ele>1091.233643</ele>
        <time>2020-09-12T08:59:12Z</time>
      </trkpt>
      <trkpt lat="46.58893" lon="6.07688">
        <ele>1094.117676</ele>
        <time>2020-09-12T09:00:03Z</time>
      </trkpt>
      <trkpt lat="46.58891" lon="6.0767">
        <ele>1095.078857</ele>
        <time>2020-09-12T09:00:17Z</time>
      </trkpt>
      <trkpt lat="46.58895" lon="6.07626">
        <ele>1097.001465</ele>
        <time>2020-09-12T09:00:41Z</time>
      </trkpt>
      <trkpt lat="46.5891" lon="6.07607">
        <ele>1098.924072</ele>
        <time>2020-09-12T09:00:59Z</time>
      </trkpt>
      <trkpt lat="46.58924" lon="6.07565">
        <ele>1103.250244</ele>
        <time>2020-09-12T09:01:29Z</time>
      </trkpt>
      <trkpt lat="46.58928" lon="6.07543">
        <ele>1104.21167</ele>
        <time>2020-09-12T09:01:49Z</time>
      </trkpt>
      <trkpt lat="46.5893" lon="6.07523">
        <ele>1106.614746</ele>
        <time>2020-09-12T09:02:03Z</time>
      </trkpt>
      <trkpt lat="46.58943" lon="6.0744">
        <ele>1115.266602</ele>
        <time>2020-09-12T09:03:15Z</time>
      </trkpt>
      <trkpt lat="46.5895" lon="6.07419">
        <ele>1109.498779</ele>
        <time>2020-09-12T09:03:38Z</time>
      </trkpt>
      <trkpt lat="46.58955" lon="6.07373">
        <ele>1109.018066</ele>
        <time>2020-09-12T09:04:03Z</time>
      </trkpt>
      <trkpt lat="46.58965" lon="6.07331">
        <ele>1109.018066</ele>
        <time>2020-09-12T09:04:31Z</time>
      </trkpt>
      <trkpt lat="46.58976" lon="6.07307">
        <ele>1109.018066</ele>
        <time>2020-09-12T09:04:44Z</time>
      </trkpt>
      <trkpt lat="46.58969" lon="6.0729">
        <ele>1109.498779</ele>
        <time>2020-09-12T09:04:59Z</time>
      </trkpt>
      <trkpt lat="46.58971" lon="6.07268">
        <ele>1107.576172</ele>
        <time>2020-09-12T09:05:28Z</time>
      </trkpt>
      <trkpt lat="46.58975" lon="6.07216">
        <ele>1106.614746</ele>
        <time>2020-09-12T09:05:57Z</time>
      </trkpt>
      <trkpt lat="46.59001" lon="6.0705">
        <ele>1109.498779</ele>
        <time>2020-09-12T09:08:51Z</time>
      </trkpt>
      <trkpt lat="46.59009" lon="6.07013">
        <ele>1111.421387</ele>
        <time>2020-09-12T09:09:13Z</time>
      </trkpt>
      <trkpt lat="46.59023" lon="6.0696">
        <ele>1111.421387</ele>
        <time>2020-09-12T09:10:03Z</time>
      </trkpt>
      <trkpt lat="46.59054" lon="6.06846">
        <ele>1111.421387</ele>
        <time>2020-09-12T09:11:36Z</time>
      </trkpt>
      <trkpt lat="46.59056" lon="6.06829">
        <ele>1105.653564</ele>
        <time>2020-09-12T09:12:02Z</time>
      </trkpt>
      <trkpt lat="46.59055" lon="6.06813">
        <ele>1106.134033</ele>
        <time>2020-09-12T09:12:24Z</time>
      </trkpt>
      <trkpt lat="46.59074" lon="6.06716">
        <ele>1107.095459</ele>
        <time>2020-09-12T09:13:30Z</time>
      </trkpt>
      <trkpt lat="46.59088" lon="6.06655">
        <ele>1109.018066</ele>
        <time>2020-09-12T09:14:16Z</time>
      </trkpt>
      <trkpt lat="46.59128" lon="6.06587">
        <ele>1108.056885</ele>
        <time>2020-09-12T09:15:30Z</time>
      </trkpt>
      <trkpt lat="46.59132" lon="6.06575">
        <ele>1108.056885</ele>
        <time>2020-09-12T09:15:35Z</time>
      </trkpt>
      <trkpt lat="46.59139" lon="6.06556">
        <ele>1108.537354</ele>
        <time>2020-09-12T09:15:46Z</time>
      </trkpt>
      <trkpt lat="46.59136" lon="6.06519">
        <ele>1109.018066</ele>
        <time>2020-09-12T09:16:12Z</time>
      </trkpt>
      <trkpt lat="46.59136" lon="6.06499">
        <ele>1104.21167</ele>
        <time>2020-09-12T09:16:32Z</time>
      </trkpt>
      <trkpt lat="46.59132" lon="6.06487">
        <ele>1103.730957</ele>
        <time>2020-09-12T09:16:42Z</time>
      </trkpt>
      <trkpt lat="46.59113" lon="6.06455">
        <ele>1102.769531</ele>
        <time>2020-09-12T09:17:13Z</time>
      </trkpt>
      <trkpt lat="46.59099" lon="6.06437">
        <ele>1104.692139</ele>
        <time>2020-09-12T09:17:30Z</time>
      </trkpt>
      <trkpt lat="46.59088" lon="6.06424">
        <ele>1107.576172</ele>
        <time>2020-09-12T09:17:44Z</time>
      </trkpt>
      <trkpt lat="46.59073" lon="6.06404">
        <ele>1112.863281</ele>
        <time>2020-09-12T09:18:04Z</time>
      </trkpt>
      <trkpt lat="46.59051" lon="6.06377">
        <ele>1123.437988</ele>
        <time>2020-09-12T09:18:28Z</time>
      </trkpt>
      <trkpt lat="46.59027" lon="6.06329">
        <ele>1129.686279</ele>
        <time>2020-09-12T09:19:09Z</time>
      </trkpt>
      <trkpt lat="46.59016" lon="6.06309">
        <ele>1128.725098</ele>
        <time>2020-09-12T09:19:26Z</time>
      </trkpt>
      <trkpt lat="46.59006" lon="6.06301">
        <ele>1127.763672</ele>
        <time>2020-09-12T09:19:37Z</time>
      </trkpt>
      <trkpt lat="46.58738" lon="6.06163">
        <ele>1097.962891</ele>
        <time>2020-09-12T09:27:11Z</time>
      </trkpt>
      <trkpt lat="46.58719" lon="6.06138">
        <ele>1096.040283</ele>
        <time>2020-09-12T09:27:36Z</time>
      </trkpt>
      <trkpt lat="46.58719" lon="6.06137">
        <ele>1096.040283</ele>
        <time>2020-09-12T09:27:37Z</time>
      </trkpt>
      <trkpt lat="46.58707" lon="6.0611">
        <ele>1096.040283</ele>
        <time>2020-09-12T09:27:54Z</time>
      </trkpt>
      <trkpt lat="46.58703" lon="6.06105">
        <ele>1096.040283</ele>
        <time>2020-09-12T09:27:58Z</time>
      </trkpt>
      <trkpt lat="46.58698" lon="6.06093">
        <ele>1092.675781</ele>
        <time>2020-09-12T09:28:14Z</time>
      </trkpt>
      <trkpt lat="46.5868" lon="6.06084">
        <ele>1085.46582</ele>
        <time>2020-09-12T09:28:34Z</time>
      </trkpt>
      <trkpt lat="46.58674" lon="6.06077">
        <ele>1084.985352</ele>
        <time>2020-09-12T09:28:44Z</time>
      </trkpt>
      <trkpt lat="46.58657" lon="6.06075">
        <ele>1083.062256</ele>
        <time>2020-09-12T09:29:03Z</time>
      </trkpt>
      <trkpt lat="46.58633" lon="6.06068">
        <ele>1081.620361</ele>
        <time>2020-09-12T09:29:27Z</time>
      </trkpt>
      <trkpt lat="46.58631" lon="6.06066">
        <ele>1082.101074</ele>
        <time>2020-09-12T09:29:29Z</time>
      </trkpt>
      <trkpt lat="46.58626" lon="6.0606">
        <ele>1083.542969</ele>
        <time>2020-09-12T09:29:35Z</time>
      </trkpt>
      <trkpt lat="46.58625" lon="6.06054">
        <ele>1083.542969</ele>
        <time>2020-09-12T09:29:52Z</time>
      </trkpt>
      <trkpt lat="46.58625" lon="6.06055">
        <ele>1083.542969</ele>
        <time>2020-09-12T09:29:54Z</time>
      </trkpt>
    </trkseg>
  </trk>
</gpx>